Нижневартовск

Карта отелей и гостиниц, располагающихся рядом с аэропортом Нижневартовск :

Нижневартовск Ханты-Мансийский автономный округ - Югра 60° 56' 59.3988" N, 76° 28' 58.1988" E
Код аэродрома ИКАО
USNN
Код аэродрома RU
УСНН
Координаты
N60.94983° E076.48283°
Превышение над уровнем моря
54
Основная полоса
03L/21R
Курс магнитный
026,7/206,7
Длина основной ВПП
3200
Ширина основной ВПП
60
Покрытие основной ВПП
Твёрдое (железобетон)
Освещение ВПП
Постоянное
Тип: 
Аэродром
Класс аэродрома: 
Международный
Принадлежность: 
ГА
Статус: 
Действующий
Сайт: 
nvavia.ru
E-mail аэродрома: 
office@nvavia.ru
Страна: 
Россия
Регион: 
Ханты-Мансийский автономный округ - Югра
Дополнительная информация: 
Оператор: ОАО «Нижневартовскавиа». Нкр.=(500)м, ДПРМ: 450-"JH/NZ", БПРМ: 915-"J/N".
Погода: 

Авиационная погода в Нижневартовске

Регион: 
Погода METAR: 
USNN 281200Z 36003MPS CAVOK 07/01 Q1023 R03/0///65 NOSIG RMK QFE764
Время наблюдения
2021-09-28T12:00:00Z
Температура C
7.0
Точка росы
1.0
Направление ветра
360
Скорость ветра (узлы)
6
Метео видимость
6.21
Явления погоды
Условия полета
VFR
Аэропорт подробнее: 
Прогноз TAF: 

Найти трансфер

С помощью этой формы Вы можете найти трансфер из аэропорта Нижневартовск в город, аэропорт или вокзал:

Карта места

Javascript is required to view this map.

Погода в аэропортах:

Авиационная погода в Трабзоне

Регион: 
Погода METAR: 
LTCG 281150Z 02005KT 340V060 9000 -SHRA BKN028 20/15 Q1018 NOSIG RMK RWY29 34004KT 300V010
Время наблюдения
2021-09-28T11:50:00Z
Температура C
20.0
Точка росы
15.0
Направление ветра
20
Скорость ветра (узлы)
5
Метео видимость
5.59
Явления погоды
-SHRA
Условия полета
MVFR

Авиационная погода в аэропорту Сокол

Регион: 
Погода METAR: 
UHMM 281200Z 07002MPS 9999 -SHRA OVC024CB 05/03 Q1005 RMK QFE739 R28/10003MPS
Время наблюдения
2021-09-28T12:00:00Z
Температура C
5.0
Точка росы
3.0
Направление ветра
70
Скорость ветра (узлы)
4
Метео видимость
6.21
Явления погоды
-SHRA
Условия полета
MVFR
Аэропорт подробнее: 

Авиационная погода в Волгограде

Регион: 
Погода METAR: 
URWW 281200Z 07005MPS 9999 -SHRA BKN037CB 12/08 Q1020 R06/010070 TEMPO 1200 TSRAGR BKN004 SCT020CB
Время наблюдения
2021-09-28T12:00:00Z
Температура C
12.0
Точка росы
8.0
Направление ветра
70
Скорость ветра (узлы)
10
Метео видимость
6.21
Явления погоды
-SHRA
Условия полета
VFR
Аэропорт подробнее: 

Авиационная погода в Нальчике

Регион: 
Погода METAR: 
URMN 281200Z 05003MPS 9999 -SHRA BKN022CB 14/09 Q1018 R24/110060 NOSIG RMK QFE727
Время наблюдения
2021-09-28T12:00:00Z
Температура C
14.0
Точка росы
9.0
Направление ветра
50
Скорость ветра (узлы)
6
Метео видимость
6.21
Явления погоды
-SHRA
Условия полета
MVFR
Аэропорт подробнее: